createdAt,value
2022-12-01T00:01:27.190Z,6.20
2022-12-01T00:04:29.101Z,7.75
2022-12-01T00:07:30.916Z,9.40
2022-12-01T00:10:33.688Z,9.50
2022-12-01T00:13:37.348Z,6.95
2022-12-01T00:16:40.549Z,8.95
2022-12-01T00:19:42.302Z,8.40
2022-12-01T00:22:44.764Z,7.88
2022-12-01T00:25:46.408Z,7.30
2022-12-01T00:28:50.986Z,7.80
2022-12-01T00:31:52.742Z,8.70
2022-12-01T00:34:54.600Z,7.20
2022-12-01T00:37:56.455Z,7.10
2022-12-01T00:40:58.211Z,8.13
2022-12-01T00:44:01.260Z,6.78
2022-12-01T00:47:03.012Z,9.32
2022-12-01T00:50:05.456Z,9.57
2022-12-01T00:53:07.122Z,7.25
2022-12-01T00:56:08.894Z,5.95
2022-12-01T00:59:12.006Z,6.97
2022-12-01T01:02:13.732Z,7.10
2022-12-01T01:05:15.658Z,7.35
2022-12-01T01:08:17.308Z,5.80
2022-12-01T01:11:19.024Z,7.35
2022-12-01T01:14:22.407Z,9.15
2022-12-01T01:17:24.021Z,6.97
2022-12-01T01:20:25.805Z,7.07
2022-12-01T01:23:27.525Z,8.13
2022-12-01T01:26:31.239Z,8.82
2022-12-01T01:29:34.317Z,8.02
2022-12-01T01:32:36.007Z,10.63
2022-12-01T01:35:37.720Z,10.32
2022-12-01T01:38:39.501Z,11.60
2022-12-01T01:41:41.079Z,8.90
2022-12-01T01:44:53.150Z,8.77
2022-12-01T01:47:57.710Z,9.18
2022-12-01T01:50:59.946Z,9.30
2022-12-01T01:54:04.582Z,10.98
2022-12-01T01:57:09.280Z,9.35
2022-12-01T02:00:15.396Z,10.70
2022-12-01T02:03:19.966Z,13.18
2022-12-01T02:06:23.592Z,8.95
2022-12-01T02:09:25.497Z,9.70
2022-12-01T02:12:46.842Z,12.50
2022-12-01T02:16:00.477Z,9.13
2022-12-01T02:19:16.307Z,9.20
2022-12-01T02:22:28.453Z,9.20
2022-12-01T02:25:44.711Z,11.35
2022-12-01T02:29:08.709Z,6.78
2022-12-01T02:32:18.771Z,7.38
2022-12-01T02:35:28.631Z,7.55
2022-12-01T02:38:36.008Z,7.85
2022-12-01T02:41:40.764Z,11.82
2022-12-01T02:44:45.303Z,9.50
2022-12-01T02:47:52.236Z,8.73
2022-12-01T02:50:58.017Z,9.50
2022-12-01T02:54:02.708Z,8.70
2022-12-01T02:57:04.397Z,9.13
2022-12-01T03:00:07.568Z,8.55
2022-12-01T03:03:37.284Z,8.00
2022-12-01T03:09:55.432Z,9.25
2022-12-01T03:16:12.807Z,7.05
2022-12-01T03:19:22.400Z,10.23
2022-12-01T03:22:28.930Z,6.32
2022-12-01T03:25:31.956Z,8.82
2022-12-01T03:28:39.027Z,11.13
2022-12-01T03:31:45.746Z,7.18
2022-12-01T03:34:53.266Z,7.70
2022-12-01T03:37:59.286Z,8.18
2022-12-01T03:41:06.700Z,8.38
2022-12-01T03:44:11.801Z,8.32
2022-12-01T03:47:16.898Z,7.38
2022-12-01T03:50:20.241Z,9.65
2022-12-01T03:53:25.874Z,8.95
2022-12-01T03:56:34.478Z,8.77
2022-12-01T03:59:38.558Z,6.68
2022-12-01T04:02:40.659Z,8.43
2022-12-01T04:05:43.917Z,9.43
2022-12-01T04:08:45.590Z,8.00
2022-12-01T04:12:05.842Z,10.27
2022-12-01T04:15:11.030Z,7.47
2022-12-01T04:21:15.959Z,7.18
2022-12-01T04:24:17.673Z,7.47
2022-12-01T04:27:20.140Z,9.60
2022-12-01T04:30:21.825Z,9.05
2022-12-01T04:33:23.498Z,8.10
2022-12-01T04:36:27.704Z,6.40
2022-12-01T04:39:29.482Z,8.52
2022-12-01T04:42:31.442Z,10.02
2022-12-01T04:45:33.097Z,8.52
2022-12-01T04:48:35.947Z,9.73
2022-12-01T04:51:38.977Z,6.72
2022-12-01T04:54:40.634Z,8.65
2022-12-01T04:57:42.310Z,7.10
2022-12-01T05:00:44.002Z,11.40
2022-12-01T05:03:50.739Z,8.15
2022-12-01T05:06:55.576Z,9.20
2022-12-01T05:09:57.412Z,9.20
2022-12-01T05:13:00.209Z,10.57
2022-12-01T05:16:06.480Z,9.88
2022-12-01T05:19:26.820Z,7.85
2022-12-01T05:22:57.226Z,8.95
2022-12-01T05:25:51.752Z,6.90
2022-12-01T05:28:53.577Z,9.98
2022-12-01T05:31:55.300Z,10.65
2022-12-01T05:34:57.029Z,9.48
2022-12-01T05:38:04.589Z,10.07
2022-12-01T05:41:10.189Z,11.93
2022-12-01T05:44:11.857Z,6.72
2022-12-01T05:47:13.506Z,11.98
2022-12-01T05:50:15.170Z,11.65
2022-12-01T05:53:18.696Z,11.00
2022-12-01T05:56:20.597Z,10.10
2022-12-01T05:59:22.338Z,11.15
2022-12-01T06:02:26.724Z,8.98
2022-12-01T06:05:29.126Z,10.23
2022-12-01T06:08:32.280Z,10.05
2022-12-01T06:11:36.918Z,10.05
2022-12-01T06:14:38.902Z,6.53
2022-12-01T06:17:40.771Z,9.32
2022-12-01T06:20:42.417Z,6.38
2022-12-01T06:23:45.495Z,8.10
2022-12-01T06:26:47.150Z,9.90
2022-12-01T06:29:49.734Z,8.25
2022-12-01T06:32:51.724Z,10.50
2022-12-01T06:35:57.930Z,10.98
2022-12-01T06:39:00.932Z,9.45
2022-12-01T06:42:02.778Z,8.43
2022-12-01T06:45:05.415Z,11.82
2022-12-01T06:48:07.157Z,9.23
2022-12-01T06:51:10.940Z,8.15
2022-12-01T06:54:15.123Z,9.70
2022-12-01T06:57:16.880Z,8.45
2022-12-01T07:00:19.144Z,10.30
2022-12-01T07:03:21.035Z,8.40
2022-12-01T07:06:22.803Z,9.38
2022-12-01T07:09:25.808Z,8.75
2022-12-01T07:12:30.218Z,8.10
2022-12-01T07:15:31.889Z,8.05
2022-12-01T07:18:34.626Z,9.45
2022-12-01T07:21:36.392Z,11.20
2022-12-01T07:24:39.446Z,8.73
2022-12-01T07:27:41.148Z,7.78
2022-12-01T07:30:43.040Z,8.30
2022-12-01T07:33:45.018Z,12.18
2022-12-01T07:36:46.674Z,10.57
2022-12-01T07:39:50.013Z,10.27
2022-12-01T07:42:51.871Z,7.82
2022-12-01T07:45:53.597Z,8.68
2022-12-01T07:48:56.249Z,8.57
2022-12-01T07:51:57.939Z,10.43
2022-12-01T07:55:00.997Z,8.90
2022-12-01T07:58:02.697Z,8.20
2022-12-01T08:01:08.158Z,7.57
2022-12-01T08:04:09.976Z,8.57
2022-12-01T08:07:11.638Z,9.48
2022-12-01T08:10:14.762Z,7.10
2022-12-01T08:13:17.561Z,8.38
2022-12-01T08:16:21.061Z,9.70
2022-12-01T08:19:22.718Z,8.50
2022-12-01T08:22:24.394Z,7.88
2022-12-01T08:25:27.675Z,10.38
2022-12-01T08:28:29.658Z,7.55
2022-12-01T08:31:33.226Z,10.05
2022-12-01T08:34:37.188Z,6.35
2022-12-01T08:37:38.812Z,7.50
2022-12-01T08:40:41.843Z,8.77
2022-12-01T08:44:01.068Z,8.25
2022-12-01T08:47:03.257Z,6.78
2022-12-01T08:50:06.534Z,6.53
2022-12-01T08:53:08.161Z,7.70
2022-12-01T08:56:14.519Z,9.00
2022-12-01T08:59:16.193Z,5.78
2022-12-01T09:02:22.303Z,9.65
2022-12-01T09:05:24.232Z,8.93
2022-12-01T09:08:31.970Z,13.07
2022-12-01T09:11:35.069Z,8.60
2022-12-01T09:14:38.738Z,6.22
2022-12-01T09:17:40.455Z,9.27
2022-12-01T09:20:42.101Z,7.32
2022-12-01T09:23:44.140Z,8.57
2022-12-01T09:26:47.274Z,5.97
2022-12-01T09:29:49.227Z,7.63
2022-12-01T09:32:51.132Z,7.15
2022-12-01T09:35:52.905Z,7.53
2022-12-01T09:38:54.685Z,11.10
2022-12-01T09:42:07.623Z,6.55
2022-12-01T09:45:20.969Z,9.73
2022-12-01T09:48:27.794Z,6.07
2022-12-01T09:51:31.100Z,6.95
2022-12-01T09:54:32.847Z,6.57
2022-12-01T09:57:38.387Z,7.03
2022-12-01T10:00:43.659Z,5.60
2022-12-01T10:06:54.357Z,8.90
2022-12-01T10:09:58.521Z,6.00
2022-12-01T10:13:01.676Z,7.13
2022-12-01T10:16:09.369Z,7.65
2022-12-01T10:19:17.579Z,8.07
2022-12-01T10:22:39.682Z,8.90
2022-12-01T10:25:51.838Z,7.88
2022-12-01T10:29:06.498Z,9.52
2022-12-01T10:32:16.836Z,8.48
2022-12-01T10:35:20.571Z,7.63
2022-12-01T10:38:27.225Z,8.48
2022-12-01T10:41:33.819Z,7.53
2022-12-01T10:44:37.014Z,5.30
2022-12-01T10:47:59.074Z,8.10
2022-12-01T10:51:15.310Z,6.80
2022-12-01T10:54:18.780Z,7.25
2022-12-01T10:57:20.615Z,7.70
2022-12-01T11:00:58.164Z,8.07
2022-12-01T11:03:53.363Z,7.18
2022-12-01T11:06:55.293Z,5.97
2022-12-01T11:10:05.882Z,8.77
2022-12-01T11:13:23.868Z,8.15
2022-12-01T11:16:43.507Z,6.45
2022-12-01T11:19:45.227Z,10.57
2022-12-01T11:22:46.922Z,6.03
2022-12-01T11:25:58.218Z,4.63
2022-12-01T11:29:02.120Z,6.95
2022-12-01T11:32:19.008Z,9.63
2022-12-01T11:35:23.449Z,6.22
2022-12-01T11:38:32.532Z,7.88
2022-12-01T11:41:37.934Z,5.85
2022-12-01T11:44:53.265Z,8.80
2022-12-01T11:48:02.114Z,7.50
2022-12-01T11:51:07.901Z,9.15
2022-12-01T11:54:15.735Z,5.97
2022-12-01T11:57:33.638Z,6.80
2022-12-01T12:00:49.901Z,8.38
2022-12-01T12:04:04.413Z,7.90
2022-12-01T12:07:13.477Z,8.60
2022-12-01T12:10:31.107Z,7.80
2022-12-01T12:13:49.714Z,7.45
2022-12-01T12:17:07.093Z,9.48
2022-12-01T12:20:27.516Z,7.10
2022-12-01T12:23:48.133Z,6.72
2022-12-01T12:26:56.449Z,5.78
2022-12-01T12:30:09.318Z,6.43
2022-12-01T12:33:29.766Z,6.22
2022-12-01T12:36:43.418Z,6.80
2022-12-01T12:40:02.308Z,10.40
2022-12-01T12:43:18.796Z,11.13
2022-12-01T12:46:31.343Z,5.90
2022-12-01T12:49:42.108Z,8.25
2022-12-01T12:52:47.895Z,7.88
2022-12-01T12:55:52.766Z,6.18
2022-12-01T12:58:58.152Z,7.20
2022-12-01T13:02:10.601Z,9.00
2022-12-01T13:05:18.338Z,6.50
2022-12-01T13:08:24.134Z,7.35
2022-12-01T13:11:31.539Z,6.90
2022-12-01T13:14:36.909Z,6.53
2022-12-01T13:17:42.628Z,8.45
2022-12-01T13:20:44.513Z,10.68
2022-12-01T13:23:49.578Z,8.40
2022-12-01T13:29:56.290Z,9.02
2022-12-01T13:33:01.153Z,6.45
2022-12-01T13:36:44.575Z,6.43
2022-12-01T13:39:36.763Z,11.68
2022-12-01T13:42:39.822Z,7.53
2022-12-01T13:45:42.192Z,7.20
2022-12-01T13:48:52.017Z,6.53
2022-12-01T13:52:16.871Z,7.05
2022-12-01T13:55:28.572Z,6.20
2022-12-01T13:58:46.364Z,6.68
2022-12-01T14:01:48.308Z,5.85
2022-12-01T14:04:50.511Z,6.88
2022-12-01T14:07:53.507Z,8.70
2022-12-01T14:10:59.671Z,7.88
2022-12-01T14:14:09.912Z,6.57
2022-12-01T14:17:26.223Z,9.55
2022-12-01T14:20:30.913Z,9.07
2022-12-01T14:23:34.689Z,8.00
2022-12-01T14:26:45.218Z,7.03
2022-12-01T14:29:47.410Z,7.70
2022-12-01T14:32:49.224Z,8.68
2022-12-01T14:35:52.147Z,7.18
2022-12-01T14:39:02.016Z,7.20
2022-12-01T14:42:38.380Z,8.60
2022-12-01T14:45:47.199Z,8.95
2022-12-01T14:48:50.663Z,8.20
2022-12-01T14:51:58.586Z,9.43
2022-12-01T14:55:03.602Z,8.68
2022-12-01T14:58:13.603Z,12.45
2022-12-01T15:01:15.571Z,9.40
2022-12-01T15:04:17.960Z,8.77
2022-12-01T15:07:21.033Z,10.15
2022-12-01T15:10:24.876Z,8.13
2022-12-01T15:13:30.782Z,8.88
2022-12-01T15:16:40.754Z,5.90
2022-12-01T15:19:43.937Z,6.80
2022-12-01T15:22:45.683Z,12.70
2022-12-01T15:25:47.458Z,10.60
2022-12-01T15:28:51.210Z,8.80
2022-12-01T15:31:54.932Z,10.27
2022-12-01T15:35:01.712Z,9.27
2022-12-01T15:38:04.098Z,11.23
2022-12-01T15:41:28.467Z,9.02
2022-12-01T15:44:32.086Z,7.07
2022-12-01T15:47:36.024Z,7.80
2022-12-01T15:50:58.805Z,11.10
2022-12-01T15:54:02.069Z,10.55
2022-12-01T15:57:05.688Z,11.73
2022-12-01T16:00:18.697Z,10.15
2022-12-01T16:03:20.554Z,11.57
2022-12-01T16:06:25.134Z,9.40
2022-12-01T16:09:31.430Z,9.55
2022-12-01T16:12:36.723Z,11.15
2022-12-01T16:15:44.149Z,10.60
2022-12-01T16:18:53.504Z,8.25
2022-12-01T16:22:00.471Z,8.50
2022-12-01T16:25:02.291Z,11.15
2022-12-01T16:28:06.337Z,10.70
2022-12-01T16:31:18.612Z,11.05
2022-12-01T16:34:44.473Z,10.60
2022-12-01T16:37:45.797Z,8.25
2022-12-01T16:40:48.793Z,9.77
2022-12-01T16:44:12.826Z,9.27
2022-12-01T16:47:17.180Z,10.65
2022-12-01T16:50:20.594Z,7.70
2022-12-01T16:53:22.284Z,12.15
2022-12-01T16:56:23.964Z,11.68
2022-12-01T16:59:26.032Z,9.27
2022-12-01T17:02:29.162Z,11.73
2022-12-01T17:05:31.242Z,9.73
2022-12-01T17:08:33.403Z,14.07
2022-12-01T17:11:35.677Z,10.18
2022-12-01T17:14:37.399Z,10.75
2022-12-01T17:17:40.499Z,15.20
2022-12-01T17:20:42.712Z,9.95
2022-12-01T17:23:44.532Z,13.90
2022-12-01T17:26:46.207Z,12.50
2022-12-01T17:29:48.143Z,12.30
2022-12-01T17:32:51.325Z,11.40
2022-12-01T17:35:53.034Z,13.18
2022-12-01T17:38:54.790Z,16.63
2022-12-01T17:41:56.996Z,14.80
2022-12-01T17:44:58.728Z,14.15
2022-12-01T17:48:01.802Z,14.38
2022-12-01T17:51:04.582Z,12.15
2022-12-01T17:54:06.462Z,12.27
2022-12-01T17:57:08.176Z,10.95
2022-12-01T18:00:11.109Z,12.13
2022-12-01T18:03:14.231Z,16.95
2022-12-01T18:06:16.847Z,12.45
2022-12-01T18:09:18.860Z,14.40
2022-12-01T18:12:20.578Z,13.13
2022-12-01T18:15:24.877Z,15.20
2022-12-01T18:18:27.994Z,10.77
2022-12-01T18:21:30.045Z,16.50
2022-12-01T18:24:31.753Z,13.88
2022-12-01T18:27:33.434Z,14.98
2022-12-01T18:30:35.135Z,12.57
2022-12-01T18:33:40.589Z,15.75
2022-12-01T18:36:42.347Z,14.52
2022-12-01T18:39:44.049Z,13.35
2022-12-01T18:42:46.588Z,13.57
2022-12-01T18:45:48.383Z,12.93
2022-12-01T18:48:53.045Z,18.80
2022-12-01T18:51:54.707Z,15.43
2022-12-01T18:54:56.408Z,12.52
2022-12-01T18:57:58.065Z,15.15
2022-12-01T19:01:00.973Z,16.20
2022-12-01T19:04:05.190Z,20.92
2022-12-01T19:07:06.928Z,17.55
2022-12-01T19:10:10.130Z,18.42
2022-12-01T19:13:11.935Z,18.13
2022-12-01T19:16:16.112Z,16.30
2022-12-01T19:19:19.315Z,19.70
2022-12-01T19:22:21.725Z,14.57
2022-12-01T19:25:23.399Z,16.15
2022-12-01T19:28:25.055Z,17.92
2022-12-01T19:31:26.773Z,15.55
2022-12-01T19:34:29.974Z,17.35
2022-12-01T19:37:32.234Z,18.08
2022-12-01T19:40:34.061Z,18.48
2022-12-01T19:43:36.250Z,19.65
2022-12-01T19:46:38.098Z,19.88
2022-12-01T19:49:42.197Z,19.38
2022-12-01T19:52:43.913Z,20.70
2022-12-01T19:55:45.578Z,21.17
2022-12-01T19:58:47.312Z,16.77
2022-12-01T20:01:49.511Z,20.15
2022-12-01T20:04:52.812Z,17.75
2022-12-01T20:07:54.699Z,18.58
2022-12-01T20:10:58.305Z,19.13
2022-12-01T20:14:00.134Z,19.60
2022-12-01T20:17:01.964Z,17.60
2022-12-01T20:20:06.474Z,24.60
2022-12-01T20:23:08.179Z,17.23
2022-12-01T20:26:10.551Z,21.77
2022-12-01T20:29:14.736Z,18.40
2022-12-01T20:32:21.981Z,18.20
2022-12-01T20:35:26.404Z,18.63
2022-12-01T20:38:28.083Z,18.73
2022-12-01T20:41:29.787Z,16.15
2022-12-01T20:44:31.496Z,22.30
2022-12-01T20:47:36.534Z,21.63
2022-12-01T20:50:39.782Z,19.70
2022-12-01T20:53:50.710Z,18.77
2022-12-01T20:57:03.746Z,18.60
2022-12-01T21:00:06.710Z,18.38
2022-12-01T21:03:08.333Z,23.33
2022-12-01T21:06:13.486Z,18.25
2022-12-01T21:09:15.510Z,20.65
2022-12-01T21:12:36.194Z,18.55
2022-12-01T21:15:48.300Z,18.20
2022-12-01T21:18:52.323Z,24.55
2022-12-01T21:21:55.560Z,21.92
2022-12-01T21:25:03.601Z,18.75
2022-12-01T21:28:19.167Z,24.15
2022-12-01T21:31:20.982Z,17.05
2022-12-01T21:34:24.780Z,17.08
2022-12-01T21:37:28.470Z,23.30
2022-12-01T21:40:30.807Z,19.65
2022-12-01T21:43:36.776Z,20.20
2022-12-01T21:46:41.944Z,18.15
2022-12-01T21:49:45.078Z,21.85
2022-12-01T21:52:48.251Z,20.70
2022-12-01T21:55:50.192Z,20.15
2022-12-01T21:58:52.179Z,25.75
2022-12-01T22:01:56.421Z,20.55
2022-12-01T22:04:59.417Z,19.95
2022-12-01T22:08:13.947Z,18.50
2022-12-01T22:11:18.994Z,18.08
2022-12-01T22:14:23.938Z,15.30
2022-12-01T22:17:25.611Z,20.05
2022-12-01T22:20:27.977Z,20.02
2022-12-01T22:23:35.620Z,18.92
2022-12-01T22:26:38.696Z,21.05
2022-12-01T22:29:43.278Z,18.42
2022-12-01T22:32:53.993Z,17.23
2022-12-01T22:35:55.791Z,19.17
2022-12-01T22:38:58.851Z,16.80
2022-12-01T22:42:07.671Z,21.80
2022-12-01T22:45:21.976Z,21.58
2022-12-01T22:48:33.447Z,12.95
2022-12-01T22:51:42.078Z,22.55
2022-12-01T22:54:46.783Z,19.65
2022-12-01T22:57:48.534Z,20.63
2022-12-01T23:00:50.209Z,14.50
2022-12-01T23:03:55.601Z,13.20
2022-12-01T23:10:07.138Z,17.38
2022-12-01T23:13:14.007Z,16.00
2022-12-01T23:16:15.757Z,18.38
2022-12-01T23:19:17.462Z,19.60
2022-12-01T23:22:20.094Z,15.70
2022-12-01T23:25:24.377Z,13.77
2022-12-01T23:28:26.161Z,16.58
2022-12-01T23:31:29.696Z,18.08
2022-12-01T23:34:31.496Z,16.50
2022-12-01T23:37:36.335Z,12.40
2022-12-01T23:40:39.309Z,17.92
2022-12-01T23:43:43.484Z,20.02
2022-12-01T23:46:45.963Z,16.83
2022-12-01T23:49:50.118Z,13.50
2022-12-01T23:52:52.379Z,17.45
2022-12-01T23:55:56.461Z,14.48
2022-12-01T23:59:00.726Z,22.48
